createdAt,value
2023-02-05T00:01:46.980Z,3.66
2023-02-05T00:04:14.585Z,3.64
2023-02-05T00:06:41.257Z,3.62
2023-02-05T00:09:09.413Z,3.56
2023-02-05T00:11:37.566Z,3.36
2023-02-05T00:14:04.263Z,3.31
2023-02-05T00:16:31.721Z,3.36
2023-02-05T00:19:05.297Z,3.24
2023-02-05T00:21:32.655Z,3.48
2023-02-05T00:24:00.601Z,3.36
2023-02-05T00:26:28.651Z,3.25
2023-02-05T00:28:58.323Z,3.25
2023-02-05T00:31:27.201Z,3.04
2023-02-05T00:33:58.072Z,2.96
2023-02-05T00:36:25.560Z,3.61
2023-02-05T00:38:54.942Z,3.36
2023-02-05T00:41:23.214Z,3.46
2023-02-05T00:43:51.272Z,3.51
2023-02-05T00:46:22.874Z,3.27
2023-02-05T00:48:50.558Z,3.44
2023-02-05T00:51:21.716Z,3.44
2023-02-05T00:53:50.170Z,3.68
2023-02-05T00:56:21.301Z,3.76
2023-02-05T00:58:52.214Z,3.27
2023-02-05T01:01:18.869Z,3.66
2023-02-05T01:03:47.060Z,3.87
2023-02-05T01:06:16.227Z,3.52
2023-02-05T01:08:46.564Z,3.35
2023-02-05T01:11:15.299Z,3.27
2023-02-05T01:13:42.641Z,3.59
2023-02-05T01:16:10.572Z,3.66
2023-02-05T01:18:39.759Z,3.36
2023-02-05T01:21:08.052Z,3.68
2023-02-05T01:23:36.686Z,3.28
2023-02-05T01:26:04.758Z,3.21
2023-02-05T01:28:32.772Z,3.38
2023-02-05T01:31:01.559Z,3.12
2023-02-05T01:33:31.724Z,3.39
2023-02-05T01:35:58.676Z,3.15
2023-02-05T01:38:29.420Z,3.36
2023-02-05T01:40:56.790Z,3.73
2023-02-05T01:43:24.869Z,3.19
2023-02-05T01:46:03.855Z,3.68
2023-02-05T01:48:34.183Z,2.70
2023-02-05T01:51:06.656Z,3.07
2023-02-05T01:53:35.205Z,3.31
2023-02-05T01:56:06.644Z,3.09
2023-02-05T01:58:38.102Z,2.98
2023-02-05T02:01:05.587Z,3.19
2023-02-05T02:03:32.708Z,2.94
2023-02-05T02:06:09.083Z,2.74
2023-02-05T02:08:36.485Z,3.36
2023-02-05T02:11:10.503Z,3.09
2023-02-05T02:13:38.002Z,3.24
2023-02-05T02:16:05.435Z,3.14
2023-02-05T02:18:34.724Z,2.99
2023-02-05T02:21:20.561Z,3.08
2023-02-05T02:23:53.341Z,2.88
2023-02-05T02:26:43.883Z,3.09
2023-02-05T02:29:14.851Z,3.21
2023-02-05T02:31:47.765Z,3.36
2023-02-05T02:34:27.070Z,3.36
2023-02-05T02:36:56.686Z,3.04
2023-02-05T02:39:31.366Z,3.31
2023-02-05T02:42:00.946Z,3.24
2023-02-05T02:44:47.087Z,3.41
2023-02-05T02:47:19.821Z,3.03
2023-02-05T02:49:55.753Z,3.11
2023-02-05T02:52:25.110Z,3.52
2023-02-05T02:54:56.541Z,3.41
2023-02-05T02:57:25.594Z,3.53
2023-02-05T02:59:54.508Z,3.52
2023-02-05T03:02:21.658Z,3.87
2023-02-05T03:04:51.557Z,3.59
2023-02-05T03:08:02.391Z,3.92
2023-02-05T03:10:38.894Z,3.76
2023-02-05T03:13:05.535Z,3.95
2023-02-05T03:15:32.466Z,4.01
2023-02-05T03:17:59.473Z,3.91
2023-02-05T03:20:30.566Z,3.95
2023-02-05T03:22:57.496Z,3.61
2023-02-05T03:25:28.282Z,3.59
2023-02-05T03:27:55.136Z,3.89
2023-02-05T03:30:24.065Z,3.79
2023-02-05T03:32:50.538Z,3.99
2023-02-05T03:35:25.994Z,4.07
2023-02-05T03:38:09.410Z,3.83
2023-02-05T03:40:41.937Z,3.85
2023-02-05T03:43:30.640Z,4.06
2023-02-05T03:46:09.157Z,3.97
2023-02-05T03:48:41.105Z,3.73
2023-02-05T03:51:28.759Z,4.09
2023-02-05T03:54:05.288Z,4.00
2023-02-05T03:56:37.050Z,4.03
2023-02-05T03:59:05.156Z,3.88
2023-02-05T04:01:32.716Z,3.43
2023-02-05T04:04:00.113Z,3.86
2023-02-05T04:06:27.013Z,3.69
2023-02-05T04:08:55.770Z,3.73
2023-02-05T04:11:22.701Z,3.29
2023-02-05T04:13:50.903Z,3.57
2023-02-05T04:16:17.641Z,3.96
2023-02-05T04:18:44.428Z,3.72
2023-02-05T04:21:11.514Z,3.89
2023-02-05T04:23:38.416Z,3.69
2023-02-05T04:26:05.042Z,3.80
2023-02-05T04:28:31.937Z,4.01
2023-02-05T04:30:59.150Z,3.91
2023-02-05T04:33:25.632Z,4.15
2023-02-05T04:35:52.781Z,4.16
2023-02-05T04:38:20.707Z,4.09
2023-02-05T04:40:47.145Z,3.79
2023-02-05T04:43:13.984Z,3.82
2023-02-05T04:45:41.165Z,3.70
2023-02-05T04:48:08.663Z,3.76
2023-02-05T04:50:36.826Z,3.34
2023-02-05T04:53:04.545Z,3.12
2023-02-05T04:55:33.641Z,3.30
2023-02-05T04:58:01.305Z,3.13
2023-02-05T05:00:28.954Z,3.05
2023-02-05T05:02:56.141Z,3.34
2023-02-05T05:05:23.059Z,2.91
2023-02-05T05:07:50.029Z,3.53
2023-02-05T05:10:16.798Z,3.44
2023-02-05T05:12:43.938Z,3.30
2023-02-05T05:15:11.108Z,3.42
2023-02-05T05:17:37.992Z,3.76
2023-02-05T05:20:12.222Z,3.40
2023-02-05T05:22:39.187Z,3.46
2023-02-05T05:25:08.697Z,3.64
2023-02-05T05:27:36.565Z,3.61
2023-02-05T05:30:03.799Z,3.73
2023-02-05T05:32:35.804Z,3.88
2023-02-05T05:35:04.271Z,3.89
2023-02-05T05:37:31.049Z,3.88
2023-02-05T05:40:18.362Z,4.03
2023-02-05T05:43:05.961Z,3.71
2023-02-05T05:45:34.636Z,3.98
2023-02-05T05:48:01.732Z,4.11
2023-02-05T05:50:31.899Z,3.98
2023-02-05T05:53:00.528Z,3.80
2023-02-05T05:55:27.318Z,3.53
2023-02-05T05:57:55.773Z,4.06
2023-02-05T06:00:22.521Z,4.37
2023-02-05T06:02:50.164Z,4.37
2023-02-05T06:05:17.314Z,4.19
2023-02-05T06:07:44.749Z,3.96
2023-02-05T06:10:12.869Z,3.92
2023-02-05T06:12:42.353Z,3.80
2023-02-05T06:15:10.309Z,4.06
2023-02-05T06:17:37.766Z,4.42
2023-02-05T06:20:09.800Z,3.90
2023-02-05T06:22:38.487Z,3.85
2023-02-05T06:25:06.506Z,4.23
2023-02-05T06:27:33.795Z,4.04
2023-02-05T06:30:00.499Z,4.15
2023-02-05T06:32:28.099Z,3.90
2023-02-05T06:34:55.185Z,4.18
2023-02-05T06:37:34.173Z,3.87
2023-02-05T06:40:13.110Z,4.06
2023-02-05T06:42:42.019Z,3.92
2023-02-05T06:45:10.564Z,4.09
2023-02-05T06:47:38.585Z,4.29
2023-02-05T06:50:09.339Z,4.41
2023-02-05T06:52:36.210Z,4.20
2023-02-05T06:55:04.017Z,4.32
2023-02-05T06:57:33.081Z,4.56
2023-02-05T07:00:00.882Z,4.17
2023-02-05T07:02:28.253Z,4.42
2023-02-05T07:04:55.246Z,4.37
2023-02-05T07:07:22.871Z,4.60
2023-02-05T07:09:49.961Z,4.52
2023-02-05T07:12:16.962Z,4.44
2023-02-05T07:14:44.808Z,4.75
2023-02-05T07:17:12.532Z,4.71
2023-02-05T07:19:39.265Z,4.63
2023-02-05T07:22:07.167Z,4.65
2023-02-05T07:24:34.264Z,4.42
2023-02-05T07:27:00.882Z,4.27
2023-02-05T07:29:28.883Z,4.29
2023-02-05T07:31:57.003Z,4.62
2023-02-05T07:34:25.192Z,4.58
2023-02-05T07:36:52.639Z,4.64
2023-02-05T07:39:21.271Z,4.75
2023-02-05T07:41:49.408Z,4.41
2023-02-05T07:44:18.305Z,4.50
2023-02-05T07:46:46.091Z,4.65
2023-02-05T07:49:13.265Z,4.74
2023-02-05T07:51:39.811Z,4.64
2023-02-05T07:54:09.098Z,4.18
2023-02-05T07:56:36.749Z,4.32
2023-02-05T07:59:03.633Z,4.59
2023-02-05T08:01:32.929Z,4.44
2023-02-05T08:04:02.639Z,4.26
2023-02-05T08:06:35.864Z,4.44
2023-02-05T08:09:04.127Z,4.19
2023-02-05T08:11:32.594Z,4.34
2023-02-05T08:13:59.259Z,4.35
2023-02-05T08:16:26.996Z,4.35
2023-02-05T08:18:54.012Z,4.48
2023-02-05T08:21:22.833Z,4.87
2023-02-05T08:23:49.634Z,4.88
2023-02-05T08:26:18.577Z,5.02
2023-02-05T08:28:49.776Z,4.61
2023-02-05T08:31:19.263Z,4.86
2023-02-05T08:33:47.986Z,4.54
2023-02-05T08:36:14.999Z,4.59
2023-02-05T08:38:45.516Z,4.63
2023-02-05T08:41:14.244Z,4.69
2023-02-05T08:43:43.798Z,4.95
2023-02-05T08:46:12.161Z,5.11
2023-02-05T08:48:39.803Z,5.15
2023-02-05T08:51:10.944Z,5.08
2023-02-05T08:53:41.787Z,5.32
2023-02-05T08:56:17.179Z,5.55
2023-02-05T09:01:29.072Z,4.90
2023-02-05T09:04:00.036Z,5.03
2023-02-05T09:06:34.936Z,5.07
2023-02-05T09:09:04.003Z,5.39
2023-02-05T09:11:32.403Z,5.51
2023-02-05T09:14:01.348Z,5.48
2023-02-05T09:16:28.466Z,5.32
2023-02-05T09:18:57.406Z,5.53
2023-02-05T09:21:26.774Z,5.68
2023-02-05T09:23:54.205Z,5.50
2023-02-05T09:26:21.428Z,6.01
2023-02-05T09:28:48.991Z,6.12
2023-02-05T09:31:17.584Z,6.23
2023-02-05T09:33:53.134Z,6.26
2023-02-05T09:36:20.993Z,6.24
2023-02-05T09:38:48.609Z,6.20
2023-02-05T09:41:23.985Z,6.30
2023-02-05T09:43:54.301Z,6.25
2023-02-05T09:46:41.262Z,6.27
2023-02-05T09:49:14.330Z,6.14
2023-02-05T09:51:45.738Z,6.04
2023-02-05T09:54:18.344Z,6.14
2023-02-05T09:56:50.214Z,6.15
2023-02-05T09:59:20.696Z,6.67
2023-02-05T10:02:01.436Z,6.58
2023-02-05T10:04:28.031Z,6.22
2023-02-05T10:07:02.098Z,6.80
2023-02-05T10:09:48.997Z,7.10
2023-02-05T10:12:34.810Z,6.88
2023-02-05T10:15:10.658Z,7.17
2023-02-05T10:17:51.649Z,6.80
2023-02-05T10:20:44.487Z,7.39
2023-02-05T10:23:37.168Z,6.58
2023-02-05T10:26:14.794Z,7.11
2023-02-05T10:28:42.432Z,7.10
2023-02-05T10:31:18.291Z,7.23
2023-02-05T10:33:49.516Z,6.44
2023-02-05T10:36:17.879Z,6.58
2023-02-05T10:38:45.531Z,6.72
2023-02-05T10:41:14.877Z,7.23
2023-02-05T10:43:50.579Z,7.76
2023-02-05T10:46:20.008Z,7.32
2023-02-05T10:49:13.664Z,7.52
2023-02-05T10:51:41.898Z,7.40
2023-02-05T10:54:28.902Z,6.99
2023-02-05T10:56:56.499Z,7.21
2023-02-05T10:59:25.886Z,7.48
2023-02-05T11:01:55.400Z,7.67
2023-02-05T11:04:33.904Z,7.49
2023-02-05T11:07:02.568Z,7.81
2023-02-05T11:09:31.529Z,7.17
2023-02-05T11:12:01.850Z,7.50
2023-02-05T11:14:33.139Z,7.30
2023-02-05T11:17:03.611Z,7.40
2023-02-05T11:19:31.191Z,7.65
2023-02-05T11:22:00.746Z,7.66
2023-02-05T11:24:41.454Z,7.95
2023-02-05T11:27:13.541Z,7.62
2023-02-05T11:29:41.367Z,7.64
2023-02-05T11:32:27.615Z,7.16
2023-02-05T11:35:08.690Z,7.24
2023-02-05T11:37:39.213Z,7.29
2023-02-05T11:40:05.966Z,7.71
2023-02-05T11:42:33.086Z,7.98
2023-02-05T11:45:02.630Z,7.90
2023-02-05T11:47:39.439Z,7.88
2023-02-05T11:50:17.341Z,8.01
2023-02-05T11:52:45.628Z,7.42
2023-02-05T11:55:24.072Z,7.90
2023-02-05T11:57:58.189Z,7.18
2023-02-05T12:00:25.115Z,7.19
2023-02-05T12:03:03.084Z,7.59
2023-02-05T12:05:33.086Z,7.77
2023-02-05T12:08:21.242Z,7.75
2023-02-05T12:10:47.992Z,8.26
2023-02-05T12:13:15.077Z,8.12
2023-02-05T12:15:45.070Z,7.72
2023-02-05T12:18:24.417Z,8.04
2023-02-05T12:21:03.104Z,7.63
2023-02-05T12:24:17.061Z,7.97
2023-02-05T12:26:45.059Z,7.34
2023-02-05T12:29:22.950Z,7.84
2023-02-05T12:32:21.432Z,8.10
2023-02-05T12:35:09.020Z,8.11
2023-02-05T12:37:44.852Z,8.39
2023-02-05T12:40:30.986Z,7.70
2023-02-05T12:43:06.356Z,7.98
2023-02-05T12:45:34.289Z,8.13
2023-02-05T12:48:20.384Z,7.78
2023-02-05T12:50:56.401Z,8.29
2023-02-05T12:53:29.605Z,8.63
2023-02-05T12:56:00.114Z,8.66
2023-02-05T12:58:33.297Z,7.87
2023-02-05T13:01:03.794Z,7.85
2023-02-05T13:03:49.749Z,7.88
2023-02-05T13:06:21.056Z,8.57
2023-02-05T13:09:01.920Z,8.61
2023-02-05T13:11:42.308Z,8.33
2023-02-05T13:14:15.520Z,7.47
2023-02-05T13:16:50.108Z,8.84
2023-02-05T13:19:34.020Z,8.44
2023-02-05T13:22:43.834Z,7.42
2023-02-05T13:25:51.427Z,7.71
2023-02-05T13:28:42.996Z,8.94
2023-02-05T13:31:19.910Z,9.08
2023-02-05T13:33:50.232Z,9.27
2023-02-05T13:36:48.568Z,9.34
2023-02-05T13:39:43.184Z,9.27
2023-02-05T13:42:34.202Z,9.03
2023-02-05T13:45:08.786Z,9.50
2023-02-05T13:47:55.552Z,9.25
2023-02-05T13:50:41.437Z,9.27
2023-02-05T13:53:28.233Z,9.11
2023-02-05T13:56:15.434Z,9.49
2023-02-05T13:58:57.861Z,9.35
2023-02-05T14:01:29.634Z,9.38
2023-02-05T14:04:01.076Z,8.55
2023-02-05T14:06:39.902Z,7.98
2023-02-05T14:09:14.324Z,8.11
2023-02-05T14:11:57.013Z,8.89
2023-02-05T14:14:38.820Z,8.90
2023-02-05T14:17:25.829Z,9.31
2023-02-05T14:19:58.488Z,9.09
2023-02-05T14:22:37.790Z,8.79
2023-02-05T14:25:33.150Z,8.14
2023-02-05T14:28:01.037Z,8.89
2023-02-05T14:30:41.456Z,9.31
2023-02-05T14:33:27.702Z,9.61
2023-02-05T14:35:58.429Z,8.46
2023-02-05T14:38:31.502Z,9.15
2023-02-05T14:41:19.330Z,8.99
2023-02-05T14:43:55.472Z,8.80
2023-02-05T14:46:27.856Z,9.03
2023-02-05T14:49:00.727Z,9.09
2023-02-05T14:51:41.518Z,8.50
2023-02-05T14:54:18.365Z,8.54
2023-02-05T14:57:10.115Z,8.47
2023-02-05T14:59:49.127Z,7.52
2023-02-05T15:02:36.474Z,7.97
2023-02-05T15:05:06.470Z,7.60
2023-02-05T15:07:36.160Z,7.58
2023-02-05T15:10:07.030Z,7.62
2023-02-05T15:12:55.709Z,7.47
2023-02-05T15:15:32.658Z,7.45
2023-02-05T15:18:14.418Z,7.45
2023-02-05T15:20:43.458Z,7.86
2023-02-05T15:23:21.710Z,7.87
2023-02-05T15:25:57.671Z,7.87
2023-02-05T15:28:33.939Z,8.15
2023-02-05T15:31:11.958Z,8.17
2023-02-05T15:34:01.172Z,8.11
2023-02-05T15:36:49.993Z,7.83
2023-02-05T15:39:25.865Z,7.85
2023-02-05T15:41:55.269Z,8.10
2023-02-05T15:44:33.196Z,8.30
2023-02-05T15:47:04.052Z,8.18
2023-02-05T15:49:58.669Z,7.96
2023-02-05T15:52:31.716Z,8.38
2023-02-05T15:55:01.454Z,8.26
2023-02-05T15:57:30.538Z,8.24
2023-02-05T16:00:00.987Z,8.46
2023-02-05T16:02:29.000Z,7.98
2023-02-05T16:05:19.204Z,7.91
2023-02-05T16:08:03.460Z,8.17
2023-02-05T16:10:55.155Z,8.59
2023-02-05T16:13:22.363Z,8.89
2023-02-05T16:15:52.636Z,8.86
2023-02-05T16:18:23.951Z,8.41
2023-02-05T16:20:57.224Z,8.31
2023-02-05T16:23:26.991Z,8.67
2023-02-05T16:25:59.777Z,8.86
2023-02-05T16:28:36.326Z,8.48
2023-02-05T16:31:03.982Z,8.32
2023-02-05T16:33:38.107Z,7.71
2023-02-05T16:36:07.874Z,7.99
2023-02-05T16:38:35.258Z,7.73
2023-02-05T16:41:18.056Z,7.93
2023-02-05T16:43:45.193Z,7.95
2023-02-05T16:46:14.999Z,7.79
2023-02-05T16:48:47.669Z,7.27
2023-02-05T16:51:33.099Z,7.35
2023-02-05T16:54:00.759Z,7.32
2023-02-05T16:56:30.242Z,7.78
2023-02-05T16:59:00.637Z,6.85
2023-02-05T17:01:38.562Z,7.86
2023-02-05T17:04:05.465Z,7.72
2023-02-05T17:06:37.926Z,6.89
2023-02-05T17:09:06.644Z,7.28
2023-02-05T17:11:43.036Z,7.17
2023-02-05T17:14:12.915Z,6.90
2023-02-05T17:16:40.761Z,6.17
2023-02-05T17:19:23.555Z,7.12
2023-02-05T17:22:10.234Z,6.88
2023-02-05T17:24:38.191Z,7.62
2023-02-05T17:27:05.481Z,7.63
2023-02-05T17:29:34.573Z,7.83
2023-02-05T17:32:01.530Z,7.10
2023-02-05T17:34:29.181Z,7.10
2023-02-05T17:36:56.002Z,6.93
2023-02-05T17:39:23.041Z,7.14
2023-02-05T17:42:04.719Z,7.28
2023-02-05T17:44:32.981Z,7.13
2023-02-05T17:47:00.582Z,6.94
2023-02-05T17:49:27.497Z,6.89
2023-02-05T17:51:54.500Z,7.28
2023-02-05T17:54:23.195Z,7.45
2023-02-05T17:56:51.567Z,7.28
2023-02-05T17:59:20.385Z,7.43
2023-02-05T18:01:47.742Z,6.80
2023-02-05T18:04:15.215Z,6.94
2023-02-05T18:06:43.094Z,7.11
2023-02-05T18:09:10.278Z,6.90
2023-02-05T18:11:37.789Z,6.71
2023-02-05T18:14:05.157Z,7.62
2023-02-05T18:16:36.557Z,7.56
2023-02-05T18:19:03.323Z,6.39
2023-02-05T18:21:30.174Z,6.28
2023-02-05T18:23:56.674Z,6.21
2023-02-05T18:26:23.338Z,6.29
2023-02-05T18:28:51.664Z,7.20
2023-02-05T18:31:19.281Z,7.83
2023-02-05T18:33:49.271Z,7.91
2023-02-05T18:36:16.114Z,7.63
2023-02-05T18:38:45.669Z,8.02
2023-02-05T18:41:12.565Z,7.97
2023-02-05T18:43:40.371Z,8.15
2023-02-05T18:46:13.562Z,7.78
2023-02-05T18:49:03.429Z,8.02
2023-02-05T18:51:30.841Z,7.98
2023-02-05T18:53:59.029Z,7.75
2023-02-05T18:56:28.488Z,7.82
2023-02-05T18:58:59.071Z,7.48
2023-02-05T19:01:29.127Z,7.22
2023-02-05T19:03:57.068Z,7.30
2023-02-05T19:06:24.957Z,7.69
2023-02-05T19:08:52.061Z,7.67
2023-02-05T19:11:20.853Z,7.48
2023-02-05T19:13:48.608Z,7.42
2023-02-05T19:16:17.172Z,7.38
2023-02-05T19:18:46.049Z,7.62
2023-02-05T19:21:17.190Z,7.83
2023-02-05T19:23:47.595Z,7.98
2023-02-05T19:26:15.700Z,8.11
2023-02-05T19:28:44.252Z,8.15
2023-02-05T19:31:12.655Z,8.10
2023-02-05T19:33:40.644Z,7.52
2023-02-05T19:36:12.830Z,6.82
2023-02-05T19:38:41.022Z,7.02
2023-02-05T19:41:10.672Z,7.52
2023-02-05T19:43:37.674Z,7.82
2023-02-05T19:46:08.342Z,7.68
2023-02-05T19:48:36.367Z,7.58
2023-02-05T19:51:05.055Z,7.45
2023-02-05T19:53:33.697Z,7.51
2023-02-05T19:56:07.526Z,7.43
2023-02-05T19:58:38.784Z,7.39
2023-02-05T20:01:12.696Z,7.35
2023-02-05T20:03:40.201Z,7.37
2023-02-05T20:06:07.562Z,6.99
2023-02-05T20:08:35.688Z,6.89
2023-02-05T20:11:03.425Z,6.93
2023-02-05T20:13:31.342Z,7.40
2023-02-05T20:16:01.232Z,7.53
2023-02-05T20:18:28.033Z,7.50
2023-02-05T20:20:56.414Z,7.69
2023-02-05T20:23:25.390Z,7.57
2023-02-05T20:25:52.531Z,7.57
2023-02-05T20:28:19.268Z,7.54
2023-02-05T20:31:04.955Z,7.45
2023-02-05T20:33:32.174Z,7.57
2023-02-05T20:36:03.542Z,7.52
2023-02-05T20:38:30.801Z,7.59
2023-02-05T20:40:57.656Z,7.69
2023-02-05T20:43:27.558Z,7.28
2023-02-05T20:45:55.043Z,7.32
2023-02-05T20:48:22.313Z,7.36
2023-02-05T20:50:49.000Z,6.94
2023-02-05T20:53:15.976Z,7.17
2023-02-05T20:55:43.622Z,7.06
2023-02-05T20:58:10.967Z,7.16
2023-02-05T21:00:38.225Z,7.06
2023-02-05T21:03:06.210Z,7.13
2023-02-05T21:05:33.340Z,7.13
2023-02-05T21:08:00.092Z,6.96
2023-02-05T21:10:27.738Z,6.62
2023-02-05T21:12:54.575Z,6.88
2023-02-05T21:15:21.853Z,6.30
2023-02-05T21:17:49.423Z,6.07
2023-02-05T21:20:16.531Z,6.95
2023-02-05T21:22:43.777Z,6.32
2023-02-05T21:25:11.150Z,5.91
2023-02-05T21:27:38.546Z,6.17
2023-02-05T21:30:06.424Z,6.04
2023-02-05T21:32:33.790Z,5.91
2023-02-05T21:35:00.875Z,6.15
2023-02-05T21:37:28.374Z,6.47
2023-02-05T21:40:08.466Z,6.42
2023-02-05T21:42:36.486Z,6.16
2023-02-05T21:45:03.750Z,5.08
2023-02-05T21:47:31.618Z,5.69
2023-02-05T21:49:58.850Z,6.13
2023-02-05T21:52:25.548Z,6.18
2023-02-05T21:54:52.355Z,6.33
2023-02-05T21:57:18.949Z,6.56
2023-02-05T21:59:45.910Z,6.69
2023-02-05T22:02:14.579Z,6.57
2023-02-05T22:04:41.375Z,5.85
2023-02-05T22:07:07.982Z,5.37
2023-02-05T22:09:34.684Z,5.98
2023-02-05T22:12:03.935Z,5.94
2023-02-05T22:14:30.938Z,6.38
2023-02-05T22:16:57.887Z,6.47
2023-02-05T22:19:25.019Z,6.44
2023-02-05T22:21:51.674Z,6.33
2023-02-05T22:24:27.612Z,6.17
2023-02-05T22:26:54.353Z,5.89
2023-02-05T22:29:22.409Z,5.31
2023-02-05T22:31:53.111Z,5.92
2023-02-05T22:34:20.041Z,5.97
2023-02-05T22:36:46.652Z,6.17
2023-02-05T22:39:13.290Z,5.91
2023-02-05T22:41:41.579Z,5.60
2023-02-05T22:44:09.295Z,5.66
2023-02-05T22:46:39.716Z,6.07
2023-02-05T22:49:08.116Z,5.85
2023-02-05T22:51:37.165Z,5.42
2023-02-05T22:54:04.457Z,5.54
2023-02-05T22:56:31.694Z,5.68
2023-02-05T22:58:59.720Z,5.61
2023-02-05T23:01:32.743Z,5.33
2023-02-05T23:04:00.343Z,5.32
2023-02-05T23:06:32.556Z,5.15
2023-02-05T23:09:00.858Z,5.45
2023-02-05T23:11:28.277Z,4.91
2023-02-05T23:13:56.701Z,4.87
2023-02-05T23:16:25.627Z,5.34
2023-02-05T23:18:53.361Z,5.48
2023-02-05T23:21:23.626Z,5.41
2023-02-05T23:23:51.721Z,5.68
2023-02-05T23:26:26.384Z,5.37
2023-02-05T23:28:53.967Z,5.84
2023-02-05T23:31:22.023Z,5.51
2023-02-05T23:33:49.268Z,5.79
2023-02-05T23:36:15.888Z,5.69
2023-02-05T23:38:42.482Z,5.78
2023-02-05T23:41:09.672Z,5.84
2023-02-05T23:43:36.908Z,5.47
2023-02-05T23:46:04.560Z,4.98
2023-02-05T23:48:32.361Z,4.49
2023-02-05T23:50:58.956Z,4.42
2023-02-05T23:53:25.488Z,4.65
2023-02-05T23:55:52.756Z,4.64
2023-02-05T23:58:20.957Z,4.94
